ロンドン/ヒースロー の空港の天気 - METARとTAF

ロンドン・ヒースロー空港 ( EGLL / LHR ) - イギリス ロンドン
飛行場実況気象(Metar)
観測時間03/30 11:20 BST (03/30 10:20 UTC)
風向・風速南南西 6m/s
視程10km以上
天気現象
なし
気温17℃
湿度63%
気圧1020hPa
METAREGLL 301020Z AUTO 20011KT 150V240 9999 NCD 17/10 Q1020 NOSIG
過去の天気等 Google飛行場航空写真 Wunderground天気予報

過去48時間のMETAR

飛行場予報(TAF)
発表時間: 3/30 05:52 BST (3/30 04:52 UTC)
予報対象時間: 30日7時 BST ~ 31日13時 BST
風向・風速南 4m/s
視程10km以上
全天の4割程度の雲 雲底高度 1,220m
31日6時 BST ~ 31日10時 BST に一時的に
視程7,000m
天気現象弱い雨霧雨
全天の8割程度の雲 雲底高度 300m
TAF EGLL 300452Z 3006/3112 19008KT 9999 SCT040
TEMPO 3105/3109 7000 -RADZ BKN010